sensor_id;sensor_type;location;lat;lon;timestamp;P1;durP1;ratioP1;P2;durP2;ratioP2
8993;SDS011;4532;50.886;4.700;2023-03-01T00:01:49;14.23;;;9.73;;
8993;SDS011;4532;50.886;4.700;2023-03-01T00:04:16;12.73;;;10.03;;
8993;SDS011;4532;50.886;4.700;2023-03-01T00:06:46;13.60;;;10.17;;
8993;SDS011;4532;50.886;4.700;2023-03-01T00:09:18;13.87;;;9.53;;
8993;SDS011;4532;50.886;4.700;2023-03-01T00:11:47;12.50;;;9.87;;
8993;SDS011;4532;50.886;4.700;2023-03-01T00:14:15;13.93;;;10.20;;
8993;SDS011;4532;50.886;4.700;2023-03-01T00:16:47;12.90;;;10.00;;
8993;SDS011;4532;50.886;4.700;2023-03-01T00:19:16;14.53;;;9.80;;
8993;SDS011;4532;50.886;4.700;2023-03-01T00:21:46;15.10;;;10.60;;
8993;SDS011;4532;50.886;4.700;2023-03-01T00:24:14;15.37;;;9.73;;
8993;SDS011;4532;50.886;4.700;2023-03-01T00:26:46;12.40;;;10.10;;
8993;SDS011;4532;50.886;4.700;2023-03-01T00:29:13;12.73;;;9.60;;
8993;SDS011;4532;50.886;4.700;2023-03-01T00:31:40;14.33;;;9.50;;
8993;SDS011;4532;50.886;4.700;2023-03-01T00:34:09;13.23;;;9.53;;
8993;SDS011;4532;50.886;4.700;2023-03-01T00:36:37;12.10;;;9.47;;
8993;SDS011;4532;50.886;4.700;2023-03-01T00:39:07;12.13;;;9.17;;
8993;SDS011;4532;50.886;4.700;2023-03-01T00:41:43;12.43;;;9.13;;
8993;SDS011;4532;50.886;4.700;2023-03-01T00:44:13;10.57;;;8.87;;
8993;SDS011;4532;50.886;4.700;2023-03-01T00:46:40;11.17;;;9.07;;
8993;SDS011;4532;50.886;4.700;2023-03-01T00:49:07;14.00;;;8.87;;
8993;SDS011;4532;50.886;4.700;2023-03-01T00:51:34;15.67;;;8.93;;
8993;SDS011;4532;50.886;4.700;2023-03-01T00:54:02;11.63;;;9.63;;
8993;SDS011;4532;50.886;4.700;2023-03-01T00:56:30;15.57;;;9.63;;
8993;SDS011;4532;50.886;4.700;2023-03-01T00:58:58;11.47;;;9.50;;
8993;SDS011;4532;50.886;4.700;2023-03-01T01:01:30;13.90;;;9.70;;
8993;SDS011;4532;50.886;4.700;2023-03-01T01:06:44;13.13;;;9.37;;
8993;SDS011;4532;50.886;4.700;2023-03-01T01:09:15;13.23;;;9.50;;
8993;SDS011;4532;50.886;4.700;2023-03-01T01:11:47;11.13;;;9.00;;
8993;SDS011;4532;50.886;4.700;2023-03-01T01:14:18;11.23;;;9.07;;
8993;SDS011;4532;50.886;4.700;2023-03-01T01:16:46;11.80;;;9.27;;
8993;SDS011;4532;50.886;4.700;2023-03-01T01:19:15;10.77;;;8.67;;
8993;SDS011;4532;50.886;4.700;2023-03-01T01:21:42;10.70;;;9.10;;
8993;SDS011;4532;50.886;4.700;2023-03-01T01:24:15;12.87;;;9.57;;
8993;SDS011;4532;50.886;4.700;2023-03-01T01:26:45;13.07;;;9.50;;
8993;SDS011;4532;50.886;4.700;2023-03-01T01:29:13;12.37;;;8.37;;
8993;SDS011;4532;50.886;4.700;2023-03-01T01:31:41;10.60;;;9.20;;
8993;SDS011;4532;50.886;4.700;2023-03-01T01:34:15;12.83;;;8.70;;
8993;SDS011;4532;50.886;4.700;2023-03-01T01:36:47;12.97;;;8.97;;
8993;SDS011;4532;50.886;4.700;2023-03-01T01:39:23;11.13;;;8.60;;
8993;SDS011;4532;50.886;4.700;2023-03-01T01:41:51;13.23;;;9.50;;
8993;SDS011;4532;50.886;4.700;2023-03-01T01:44:19;12.03;;;8.73;;
8993;SDS011;4532;50.886;4.700;2023-03-01T01:49:56;11.57;;;8.27;;
8993;SDS011;4532;50.886;4.700;2023-03-01T01:52:27;11.87;;;9.27;;
8993;SDS011;4532;50.886;4.700;2023-03-01T01:55:05;10.63;;;8.37;;
8993;SDS011;4532;50.886;4.700;2023-03-01T01:57:53;12.83;;;9.10;;
8993;SDS011;4532;50.886;4.700;2023-03-01T02:00:28;12.60;;;8.87;;
8993;SDS011;4532;50.886;4.700;2023-03-01T02:03:01;12.43;;;8.80;;
8993;SDS011;4532;50.886;4.700;2023-03-01T02:08:34;11.60;;;8.93;;
8993;SDS011;4532;50.886;4.700;2023-03-01T02:11:04;11.90;;;8.83;;
8993;SDS011;4532;50.886;4.700;2023-03-01T02:13:37;14.43;;;9.03;;
8993;SDS011;4532;50.886;4.700;2023-03-01T02:16:08;13.13;;;9.57;;
8993;SDS011;4532;50.886;4.700;2023-03-01T02:18:37;11.03;;;8.57;;
8993;SDS011;4532;50.886;4.700;2023-03-01T02:24:04;11.53;;;9.20;;
8993;SDS011;4532;50.886;4.700;2023-03-01T02:26:55;11.37;;;9.20;;
8993;SDS011;4532;50.886;4.700;2023-03-01T02:29:25;11.17;;;8.73;;
8993;SDS011;4532;50.886;4.700;2023-03-01T02:31:55;11.50;;;8.87;;
8993;SDS011;4532;50.886;4.700;2023-03-01T02:34:25;14.10;;;8.90;;
8993;SDS011;4532;50.886;4.700;2023-03-01T02:36:59;15.33;;;9.10;;
8993;SDS011;4532;50.886;4.700;2023-03-01T02:39:42;9.70;;;8.33;;
8993;SDS011;4532;50.886;4.700;2023-03-01T02:42:13;11.60;;;8.43;;
8993;SDS011;4532;50.886;4.700;2023-03-01T02:44:43;10.87;;;8.23;;
8993;SDS011;4532;50.886;4.700;2023-03-01T02:47:13;13.27;;;9.27;;
8993;SDS011;4532;50.886;4.700;2023-03-01T02:49:40;11.07;;;8.50;;
8993;SDS011;4532;50.886;4.700;2023-03-01T02:55:03;10.10;;;8.27;;
8993;SDS011;4532;50.886;4.700;2023-03-01T02:57:41;11.43;;;8.87;;
8993;SDS011;4532;50.886;4.700;2023-03-01T03:00:12;12.87;;;8.23;;
8993;SDS011;4532;50.886;4.700;2023-03-01T03:02:51;12.30;;;9.23;;
8993;SDS011;4532;50.886;4.700;2023-03-01T03:05:26;13.60;;;9.40;;
8993;SDS011;4532;50.886;4.700;2023-03-01T03:08:00;11.80;;;8.83;;
8993;SDS011;4532;50.886;4.700;2023-03-01T03:10:30;12.53;;;8.87;;
8993;SDS011;4532;50.886;4.700;2023-03-01T03:13:03;11.27;;;8.43;;
8993;SDS011;4532;50.886;4.700;2023-03-01T03:15:39;14.83;;;9.37;;
8993;SDS011;4532;50.886;4.700;2023-03-01T03:18:11;14.07;;;8.97;;
8993;SDS011;4532;50.886;4.700;2023-03-01T03:20:44;14.07;;;9.53;;
8993;SDS011;4532;50.886;4.700;2023-03-01T03:23:11;12.53;;;8.67;;
8993;SDS011;4532;50.886;4.700;2023-03-01T03:25:39;11.43;;;9.47;;
8993;SDS011;4532;50.886;4.700;2023-03-01T03:28:08;13.03;;;8.97;;
8993;SDS011;4532;50.886;4.700;2023-03-01T03:30:40;11.67;;;9.57;;
8993;SDS011;4532;50.886;4.700;2023-03-01T03:33:10;14.00;;;9.33;;
8993;SDS011;4532;50.886;4.700;2023-03-01T03:35:43;10.97;;;8.93;;
8993;SDS011;4532;50.886;4.700;2023-03-01T03:38:18;11.30;;;8.93;;
8993;SDS011;4532;50.886;4.700;2023-03-01T03:40:50;10.77;;;8.80;;
8993;SDS011;4532;50.886;4.700;2023-03-01T03:43:27;12.80;;;8.57;;
8993;SDS011;4532;50.886;4.700;2023-03-01T03:46:00;13.27;;;8.70;;
8993;SDS011;4532;50.886;4.700;2023-03-01T03:48:35;13.80;;;8.63;;
8993;SDS011;4532;50.886;4.700;2023-03-01T03:51:12;15.23;;;9.20;;
8993;SDS011;4532;50.886;4.700;2023-03-01T03:53:40;13.43;;;9.20;;
8993;SDS011;4532;50.886;4.700;2023-03-01T03:56:11;9.40;;;8.30;;
8993;SDS011;4532;50.886;4.700;2023-03-01T03:58:38;14.00;;;9.37;;
8993;SDS011;4532;50.886;4.700;2023-03-01T04:01:05;12.17;;;8.70;;
8993;SDS011;4532;50.886;4.700;2023-03-01T04:03:33;11.37;;;8.60;;
8993;SDS011;4532;50.886;4.700;2023-03-01T04:06:04;10.60;;;8.27;;
8993;SDS011;4532;50.886;4.700;2023-03-01T04:08:32;12.03;;;9.07;;
8993;SDS011;4532;50.886;4.700;2023-03-01T04:11:02;13.90;;;8.47;;
8993;SDS011;4532;50.886;4.700;2023-03-01T04:13:55;12.13;;;8.80;;
8993;SDS011;4532;50.886;4.700;2023-03-01T04:16:29;13.17;;;9.30;;
8993;SDS011;4532;50.886;4.700;2023-03-01T04:18:59;12.73;;;8.97;;
8993;SDS011;4532;50.886;4.700;2023-03-01T04:21:27;12.30;;;9.10;;
8993;SDS011;4532;50.886;4.700;2023-03-01T04:23:56;11.83;;;8.53;;
8993;SDS011;4532;50.886;4.700;2023-03-01T04:26:23;14.53;;;9.23;;
8993;SDS011;4532;50.886;4.700;2023-03-01T04:28:53;14.10;;;9.27;;
8993;SDS011;4532;50.886;4.700;2023-03-01T04:31:25;11.60;;;8.77;;
8993;SDS011;4532;50.886;4.700;2023-03-01T04:33:55;14.77;;;9.13;;
8993;SDS011;4532;50.886;4.700;2023-03-01T04:36:23;13.00;;;9.30;;
8993;SDS011;4532;50.886;4.700;2023-03-01T04:38:52;14.90;;;9.60;;
8993;SDS011;4532;50.886;4.700;2023-03-01T04:41:23;13.60;;;9.93;;
8993;SDS011;4532;50.886;4.700;2023-03-01T04:43:50;13.60;;;9.27;;
8993;SDS011;4532;50.886;4.700;2023-03-01T04:46:18;12.83;;;9.80;;
8993;SDS011;4532;50.886;4.700;2023-03-01T04:48:49;12.07;;;9.20;;
8993;SDS011;4532;50.886;4.700;2023-03-01T04:51:16;13.23;;;9.53;;
8993;SDS011;4532;50.886;4.700;2023-03-01T04:53:44;15.80;;;9.80;;
8993;SDS011;4532;50.886;4.700;2023-03-01T04:56:14;14.40;;;9.07;;
8993;SDS011;4532;50.886;4.700;2023-03-01T04:58:42;11.30;;;9.00;;
8993;SDS011;4532;50.886;4.700;2023-03-01T05:01:15;10.50;;;8.17;;
8993;SDS011;4532;50.886;4.700;2023-03-01T05:03:49;17.00;;;9.47;;
8993;SDS011;4532;50.886;4.700;2023-03-01T05:06:18;11.33;;;9.60;;
8993;SDS011;4532;50.886;4.700;2023-03-01T05:08:46;11.70;;;9.07;;
8993;SDS011;4532;50.886;4.700;2023-03-01T05:11:13;16.23;;;9.23;;
8993;SDS011;4532;50.886;4.700;2023-03-01T05:13:43;12.63;;;9.30;;
8993;SDS011;4532;50.886;4.700;2023-03-01T05:16:12;13.80;;;9.47;;
8993;SDS011;4532;50.886;4.700;2023-03-01T05:18:43;11.80;;;9.20;;
8993;SDS011;4532;50.886;4.700;2023-03-01T05:21:13;11.90;;;9.10;;
8993;SDS011;4532;50.886;4.700;2023-03-01T05:23:44;12.23;;;8.70;;
8993;SDS011;4532;50.886;4.700;2023-03-01T05:26:14;14.30;;;8.93;;
8993;SDS011;4532;50.886;4.700;2023-03-01T05:29:07;11.47;;;8.50;;
8993;SDS011;4532;50.886;4.700;2023-03-01T05:31:36;11.53;;;8.70;;
8993;SDS011;4532;50.886;4.700;2023-03-01T05:34:06;12.23;;;8.33;;
8993;SDS011;4532;50.886;4.700;2023-03-01T05:36:36;12.00;;;8.57;;
8993;SDS011;4532;50.886;4.700;2023-03-01T05:39:08;11.00;;;8.57;;
8993;SDS011;4532;50.886;4.700;2023-03-01T05:41:35;13.03;;;9.10;;
8993;SDS011;4532;50.886;4.700;2023-03-01T05:44:05;13.97;;;9.07;;
8993;SDS011;4532;50.886;4.700;2023-03-01T05:46:35;11.87;;;8.93;;
8993;SDS011;4532;50.886;4.700;2023-03-01T05:49:04;10.43;;;7.97;;
8993;SDS011;4532;50.886;4.700;2023-03-01T05:51:32;12.67;;;8.30;;
8993;SDS011;4532;50.886;4.700;2023-03-01T05:54:01;13.43;;;8.70;;
8993;SDS011;4532;50.886;4.700;2023-03-01T05:56:28;11.20;;;8.77;;
8993;SDS011;4532;50.886;4.700;2023-03-01T05:58:58;12.63;;;9.50;;
8993;SDS011;4532;50.886;4.700;2023-03-01T06:01:26;11.43;;;8.67;;
8993;SDS011;4532;50.886;4.700;2023-03-01T06:03:55;11.53;;;8.60;;
8993;SDS011;4532;50.886;4.700;2023-03-01T06:06:23;11.90;;;8.93;;
8993;SDS011;4532;50.886;4.700;2023-03-01T06:08:55;11.73;;;9.50;;
8993;SDS011;4532;50.886;4.700;2023-03-01T06:11:25;10.67;;;8.53;;
8993;SDS011;4532;50.886;4.700;2023-03-01T06:13:52;12.57;;;9.20;;
8993;SDS011;4532;50.886;4.700;2023-03-01T06:16:19;15.33;;;9.20;;
8993;SDS011;4532;50.886;4.700;2023-03-01T06:18:46;14.47;;;9.17;;
8993;SDS011;4532;50.886;4.700;2023-03-01T06:21:15;12.90;;;8.87;;
8993;SDS011;4532;50.886;4.700;2023-03-01T06:23:47;15.10;;;9.07;;
8993;SDS011;4532;50.886;4.700;2023-03-01T06:26:15;11.43;;;8.87;;
8993;SDS011;4532;50.886;4.700;2023-03-01T06:28:42;10.83;;;8.17;;
8993;SDS011;4532;50.886;4.700;2023-03-01T06:31:16;11.73;;;9.13;;
8993;SDS011;4532;50.886;4.700;2023-03-01T06:33:49;13.33;;;9.10;;
8993;SDS011;4532;50.886;4.700;2023-03-01T06:36:16;13.97;;;9.20;;
8993;SDS011;4532;50.886;4.700;2023-03-01T06:38:47;12.67;;;9.87;;
8993;SDS011;4532;50.886;4.700;2023-03-01T06:41:16;13.40;;;9.53;;
8993;SDS011;4532;50.886;4.700;2023-03-01T06:43:46;11.83;;;8.43;;
8993;SDS011;4532;50.886;4.700;2023-03-01T06:46:18;14.33;;;8.60;;
8993;SDS011;4532;50.886;4.700;2023-03-01T06:48:47;12.77;;;9.13;;
8993;SDS011;4532;50.886;4.700;2023-03-01T06:51:16;16.47;;;9.90;;
8993;SDS011;4532;50.886;4.700;2023-03-01T06:53:45;19.17;;;9.53;;
8993;SDS011;4532;50.886;4.700;2023-03-01T06:56:15;12.03;;;8.77;;
8993;SDS011;4532;50.886;4.700;2023-03-01T06:58:42;13.90;;;9.57;;
8993;SDS011;4532;50.886;4.700;2023-03-01T07:01:09;12.43;;;9.17;;
8993;SDS011;4532;50.886;4.700;2023-03-01T07:03:36;12.57;;;9.17;;
8993;SDS011;4532;50.886;4.700;2023-03-01T07:06:04;16.53;;;9.90;;
8993;SDS011;4532;50.886;4.700;2023-03-01T07:08:31;13.90;;;9.67;;
8993;SDS011;4532;50.886;4.700;2023-03-01T07:10:58;12.97;;;9.57;;
8993;SDS011;4532;50.886;4.700;2023-03-01T07:13:30;13.43;;;9.50;;
8993;SDS011;4532;50.886;4.700;2023-03-01T07:15:57;16.20;;;9.67;;
8993;SDS011;4532;50.886;4.700;2023-03-01T07:18:27;15.03;;;10.13;;
8993;SDS011;4532;50.886;4.700;2023-03-01T07:21:03;13.03;;;9.23;;
8993;SDS011;4532;50.886;4.700;2023-03-01T07:23:36;14.67;;;9.40;;
8993;SDS011;4532;50.886;4.700;2023-03-01T07:26:05;14.50;;;10.17;;
8993;SDS011;4532;50.886;4.700;2023-03-01T07:28:36;13.33;;;9.47;;
8993;SDS011;4532;50.886;4.700;2023-03-01T07:31:05;12.33;;;8.93;;
8993;SDS011;4532;50.886;4.700;2023-03-01T07:33:33;17.53;;;10.30;;
8993;SDS011;4532;50.886;4.700;2023-03-01T07:36:02;13.43;;;9.97;;
8993;SDS011;4532;50.886;4.700;2023-03-01T07:38:33;14.50;;;10.03;;
8993;SDS011;4532;50.886;4.700;2023-03-01T07:41:03;13.17;;;9.17;;
8993;SDS011;4532;50.886;4.700;2023-03-01T07:43:32;15.17;;;10.53;;
8993;SDS011;4532;50.886;4.700;2023-03-01T07:46:02;18.33;;;10.17;;
8993;SDS011;4532;50.886;4.700;2023-03-01T07:48:33;14.90;;;9.17;;
8993;SDS011;4532;50.886;4.700;2023-03-01T07:51:01;15.10;;;9.87;;
8993;SDS011;4532;50.886;4.700;2023-03-01T07:53:34;15.20;;;9.17;;
8993;SDS011;4532;50.886;4.700;2023-03-01T07:56:09;14.23;;;8.93;;
8993;SDS011;4532;50.886;4.700;2023-03-01T07:58:38;14.50;;;9.13;;
8993;SDS011;4532;50.886;4.700;2023-03-01T08:01:17;15.97;;;10.37;;
8993;SDS011;4532;50.886;4.700;2023-03-01T08:03:46;17.30;;;10.90;;
8993;SDS011;4532;50.886;4.700;2023-03-01T08:06:16;14.13;;;8.87;;
8993;SDS011;4532;50.886;4.700;2023-03-01T08:08:44;16.20;;;9.40;;
8993;SDS011;4532;50.886;4.700;2023-03-01T08:11:12;14.30;;;9.77;;
8993;SDS011;4532;50.886;4.700;2023-03-01T08:13:46;16.07;;;10.23;;
8993;SDS011;4532;50.886;4.700;2023-03-01T08:16:20;12.40;;;8.93;;
8993;SDS011;4532;50.886;4.700;2023-03-01T08:18:50;16.47;;;9.33;;
8993;SDS011;4532;50.886;4.700;2023-03-01T08:21:17;13.77;;;9.23;;
8993;SDS011;4532;50.886;4.700;2023-03-01T08:23:49;18.23;;;10.20;;
8993;SDS011;4532;50.886;4.700;2023-03-01T08:26:21;14.07;;;9.97;;
8993;SDS011;4532;50.886;4.700;2023-03-01T08:28:49;17.63;;;10.33;;
8993;SDS011;4532;50.886;4.700;2023-03-01T08:33:48;13.43;;;10.53;;
8993;SDS011;4532;50.886;4.700;2023-03-01T08:36:25;18.47;;;10.93;;
8993;SDS011;4532;50.886;4.700;2023-03-01T08:39:00;12.83;;;10.00;;
8993;SDS011;4532;50.886;4.700;2023-03-01T08:41:27;14.83;;;10.47;;
8993;SDS011;4532;50.886;4.700;2023-03-01T08:43:55;14.27;;;9.80;;
8993;SDS011;4532;50.886;4.700;2023-03-01T08:46:29;15.87;;;10.40;;
8993;SDS011;4532;50.886;4.700;2023-03-01T08:49:12;16.27;;;10.93;;
8993;SDS011;4532;50.886;4.700;2023-03-01T08:51:46;18.03;;;11.03;;
8993;SDS011;4532;50.886;4.700;2023-03-01T08:54:18;12.03;;;9.50;;
8993;SDS011;4532;50.886;4.700;2023-03-01T08:56:49;15.73;;;10.97;;
8993;SDS011;4532;50.886;4.700;2023-03-01T08:59:19;14.93;;;10.23;;
8993;SDS011;4532;50.886;4.700;2023-03-01T09:01:54;19.87;;;10.70;;
8993;SDS011;4532;50.886;4.700;2023-03-01T09:04:23;18.60;;;11.23;;
8993;SDS011;4532;50.886;4.700;2023-03-01T09:06:53;16.57;;;10.70;;
8993;SDS011;4532;50.886;4.700;2023-03-01T09:09:20;14.97;;;10.20;;
8993;SDS011;4532;50.886;4.700;2023-03-01T09:11:47;14.17;;;10.07;;
8993;SDS011;4532;50.886;4.700;2023-03-01T09:14:16;16.80;;;10.93;;
8993;SDS011;4532;50.886;4.700;2023-03-01T09:16:48;13.77;;;10.43;;
8993;SDS011;4532;50.886;4.700;2023-03-01T09:19:15;17.53;;;10.53;;
8993;SDS011;4532;50.886;4.700;2023-03-01T09:21:45;16.03;;;11.33;;
8993;SDS011;4532;50.886;4.700;2023-03-01T09:24:20;15.27;;;10.77;;
8993;SDS011;4532;50.886;4.700;2023-03-01T09:26:54;15.97;;;10.20;;
8993;SDS011;4532;50.886;4.700;2023-03-01T09:29:22;14.07;;;10.27;;
8993;SDS011;4532;50.886;4.700;2023-03-01T09:31:53;17.80;;;10.43;;
8993;SDS011;4532;50.886;4.700;2023-03-01T09:34:22;15.50;;;11.03;;
8993;SDS011;4532;50.886;4.700;2023-03-01T09:36:50;13.33;;;10.80;;
8993;SDS011;4532;50.886;4.700;2023-03-01T09:39:20;18.80;;;10.53;;
8993;SDS011;4532;50.886;4.700;2023-03-01T09:41:57;15.63;;;11.37;;
8993;SDS011;4532;50.886;4.700;2023-03-01T09:47:15;20.63;;;11.27;;
8993;SDS011;4532;50.886;4.700;2023-03-01T09:50:04;16.03;;;11.23;;
8993;SDS011;4532;50.886;4.700;2023-03-01T09:53:19;14.23;;;11.17;;
8993;SDS011;4532;50.886;4.700;2023-03-01T09:55:45;18.57;;;11.37;;
8993;SDS011;4532;50.886;4.700;2023-03-01T10:00:54;16.60;;;11.30;;
8993;SDS011;4532;50.886;4.700;2023-03-01T10:03:26;14.20;;;11.17;;
8993;SDS011;4532;50.886;4.700;2023-03-01T10:08:30;16.27;;;12.00;;
8993;SDS011;4532;50.886;4.700;2023-03-01T10:11:03;16.17;;;11.73;;
8993;SDS011;4532;50.886;4.700;2023-03-01T10:13:46;16.83;;;11.70;;
8993;SDS011;4532;50.886;4.700;2023-03-01T10:16:40;15.97;;;11.80;;
8993;SDS011;4532;50.886;4.700;2023-03-01T10:19:16;18.00;;;11.03;;
8993;SDS011;4532;50.886;4.700;2023-03-01T10:21:49;17.57;;;12.20;;
8993;SDS011;4532;50.886;4.700;2023-03-01T10:24:18;17.10;;;12.03;;
8993;SDS011;4532;50.886;4.700;2023-03-01T10:26:57;17.37;;;11.87;;
8993;SDS011;4532;50.886;4.700;2023-03-01T10:29:33;19.97;;;12.20;;
8993;SDS011;4532;50.886;4.700;2023-03-01T10:32:04;16.20;;;11.00;;
8993;SDS011;4532;50.886;4.700;2023-03-01T10:34:34;17.90;;;11.17;;
8993;SDS011;4532;50.886;4.700;2023-03-01T10:37:16;21.43;;;11.77;;
8993;SDS011;4532;50.886;4.700;2023-03-01T10:39:56;15.57;;;11.20;;
8993;SDS011;4532;50.886;4.700;2023-03-01T10:42:36;14.13;;;10.87;;
8993;SDS011;4532;50.886;4.700;2023-03-01T10:48:02;19.57;;;10.60;;
8993;SDS011;4532;50.886;4.700;2023-03-01T10:50:31;17.23;;;11.57;;
8993;SDS011;4532;50.886;4.700;2023-03-01T10:53:03;14.50;;;10.63;;
8993;SDS011;4532;50.886;4.700;2023-03-01T10:55:33;15.03;;;10.73;;
8993;SDS011;4532;50.886;4.700;2023-03-01T11:00:34;14.77;;;10.87;;
8993;SDS011;4532;50.886;4.700;2023-03-01T11:03:17;13.60;;;10.47;;
8993;SDS011;4532;50.886;4.700;2023-03-01T11:05:52;14.70;;;10.13;;
8993;SDS011;4532;50.886;4.700;2023-03-01T11:08:43;14.57;;;10.77;;
8993;SDS011;4532;50.886;4.700;2023-03-01T11:14:01;16.50;;;10.53;;
8993;SDS011;4532;50.886;4.700;2023-03-01T11:17:10;15.47;;;10.60;;
8993;SDS011;4532;50.886;4.700;2023-03-01T11:19:41;14.53;;;10.70;;
8993;SDS011;4532;50.886;4.700;2023-03-01T11:22:19;14.27;;;10.90;;
8993;SDS011;4532;50.886;4.700;2023-03-01T11:24:51;15.97;;;11.47;;
8993;SDS011;4532;50.886;4.700;2023-03-01T11:27:41;14.13;;;10.13;;
8993;SDS011;4532;50.886;4.700;2023-03-01T11:35:34;14.07;;;10.63;;
8993;SDS011;4532;50.886;4.700;2023-03-01T11:46:11;18.10;;;10.70;;
8993;SDS011;4532;50.886;4.700;2023-03-01T12:17:15;12.67;;;9.33;;
8993;SDS011;4532;50.886;4.700;2023-03-01T12:34:03;15.93;;;9.83;;
8993;SDS011;4532;50.886;4.700;2023-03-01T12:47:51;13.20;;;9.30;;
8993;SDS011;4532;50.886;4.700;2023-03-01T12:50:51;15.93;;;10.43;;
8993;SDS011;4532;50.886;4.700;2023-03-01T12:53:31;16.43;;;10.23;;
8993;SDS011;4532;50.886;4.700;2023-03-01T12:56:05;13.67;;;9.70;;
8993;SDS011;4532;50.886;4.700;2023-03-01T12:58:55;11.20;;;9.30;;
8993;SDS011;4532;50.886;4.700;2023-03-01T13:07:47;12.93;;;9.80;;
8993;SDS011;4532;50.886;4.700;2023-03-01T13:10:26;16.77;;;10.93;;
8993;SDS011;4532;50.886;4.700;2023-03-01T13:15:48;12.87;;;9.23;;
8993;SDS011;4532;50.886;4.700;2023-03-01T13:20:52;12.80;;;9.20;;
8993;SDS011;4532;50.886;4.700;2023-03-01T13:23:24;14.37;;;9.23;;
8993;SDS011;4532;50.886;4.700;2023-03-01T13:33:51;12.87;;;9.07;;
8993;SDS011;4532;50.886;4.700;2023-03-01T13:39:03;13.10;;;9.60;;
8993;SDS011;4532;50.886;4.700;2023-03-01T13:44:26;13.13;;;8.90;;
8993;SDS011;4532;50.886;4.700;2023-03-01T13:47:13;13.80;;;9.37;;
8993;SDS011;4532;50.886;4.700;2023-03-01T13:49:47;12.77;;;9.40;;
8993;SDS011;4532;50.886;4.700;2023-03-01T13:57:44;12.93;;;9.47;;
8993;SDS011;4532;50.886;4.700;2023-03-01T14:00:39;12.13;;;8.40;;
8993;SDS011;4532;50.886;4.700;2023-03-01T14:05:40;16.23;;;9.67;;
8993;SDS011;4532;50.886;4.700;2023-03-01T14:08:18;16.17;;;9.03;;
8993;SDS011;4532;50.886;4.700;2023-03-01T14:10:54;12.90;;;9.67;;
8993;SDS011;4532;50.886;4.700;2023-03-01T14:19:31;14.50;;;9.47;;
8993;SDS011;4532;50.886;4.700;2023-03-01T14:22:20;12.43;;;8.90;;
8993;SDS011;4532;50.886;4.700;2023-03-01T14:24:58;15.83;;;9.00;;
8993;SDS011;4532;50.886;4.700;2023-03-01T14:27:31;11.40;;;8.40;;
8993;SDS011;4532;50.886;4.700;2023-03-01T14:30:03;14.10;;;9.13;;
8993;SDS011;4532;50.886;4.700;2023-03-01T14:32:48;11.70;;;8.60;;
8993;SDS011;4532;50.886;4.700;2023-03-01T14:35:26;10.20;;;8.37;;
8993;SDS011;4532;50.886;4.700;2023-03-01T14:37:58;12.10;;;9.10;;
8993;SDS011;4532;50.886;4.700;2023-03-01T14:40:39;11.60;;;7.77;;
8993;SDS011;4532;50.886;4.700;2023-03-01T14:43:13;13.97;;;8.70;;
8993;SDS011;4532;50.886;4.700;2023-03-01T14:45:47;11.30;;;8.43;;
8993;SDS011;4532;50.886;4.700;2023-03-01T14:48:19;12.70;;;8.30;;
8993;SDS011;4532;50.886;4.700;2023-03-01T14:50:49;10.73;;;7.77;;
8993;SDS011;4532;50.886;4.700;2023-03-01T14:53:18;10.20;;;8.37;;
8993;SDS011;4532;50.886;4.700;2023-03-01T14:55:51;9.10;;;7.50;;
8993;SDS011;4532;50.886;4.700;2023-03-01T14:58:23;11.93;;;7.57;;
8993;SDS011;4532;50.886;4.700;2023-03-01T15:00:56;10.63;;;6.93;;
8993;SDS011;4532;50.886;4.700;2023-03-01T15:06:04;9.57;;;7.07;;
8993;SDS011;4532;50.886;4.700;2023-03-01T15:08:36;9.43;;;7.13;;
8993;SDS011;4532;50.886;4.700;2023-03-01T15:11:26;8.97;;;6.90;;
8993;SDS011;4532;50.886;4.700;2023-03-01T15:13:59;12.37;;;8.27;;
8993;SDS011;4532;50.886;4.700;2023-03-01T15:16:33;10.77;;;7.43;;
8993;SDS011;4532;50.886;4.700;2023-03-01T15:19:15;14.27;;;7.50;;
8993;SDS011;4532;50.886;4.700;2023-03-01T15:21:48;10.63;;;6.70;;
8993;SDS011;4532;50.886;4.700;2023-03-01T15:24:17;12.03;;;7.13;;
8993;SDS011;4532;50.886;4.700;2023-03-01T15:26:58;14.53;;;7.87;;
8993;SDS011;4532;50.886;4.700;2023-03-01T15:29:33;11.33;;;7.40;;
8993;SDS011;4532;50.886;4.700;2023-03-01T15:32:27;11.30;;;8.23;;
8993;SDS011;4532;50.886;4.700;2023-03-01T15:38:01;10.10;;;7.00;;
8993;SDS011;4532;50.886;4.700;2023-03-01T15:40:30;11.90;;;6.77;;
8993;SDS011;4532;50.886;4.700;2023-03-01T15:42:58;11.10;;;7.43;;
8993;SDS011;4532;50.886;4.700;2023-03-01T15:45:27;10.70;;;7.83;;
8993;SDS011;4532;50.886;4.700;2023-03-01T15:48:02;8.70;;;7.43;;
8993;SDS011;4532;50.886;4.700;2023-03-01T15:50:36;12.27;;;7.50;;
8993;SDS011;4532;50.886;4.700;2023-03-01T15:53:13;10.27;;;7.07;;
8993;SDS011;4532;50.886;4.700;2023-03-01T15:55:44;9.47;;;6.67;;
8993;SDS011;4532;50.886;4.700;2023-03-01T15:58:20;12.67;;;7.27;;
8993;SDS011;4532;50.886;4.700;2023-03-01T16:00:51;9.27;;;7.13;;
8993;SDS011;4532;50.886;4.700;2023-03-01T16:03:30;9.13;;;7.53;;
8993;SDS011;4532;50.886;4.700;2023-03-01T16:06:00;8.30;;;7.30;;
8993;SDS011;4532;50.886;4.700;2023-03-01T16:08:28;10.47;;;7.10;;
8993;SDS011;4532;50.886;4.700;2023-03-01T16:10:55;10.53;;;6.80;;
8993;SDS011;4532;50.886;4.700;2023-03-01T16:13:22;8.30;;;6.50;;
8993;SDS011;4532;50.886;4.700;2023-03-01T16:15:57;12.40;;;7.10;;
8993;SDS011;4532;50.886;4.700;2023-03-01T16:18:27;9.77;;;6.73;;
8993;SDS011;4532;50.886;4.700;2023-03-01T16:20:56;9.93;;;7.00;;
8993;SDS011;4532;50.886;4.700;2023-03-01T16:23:24;11.73;;;7.30;;
8993;SDS011;4532;50.886;4.700;2023-03-01T16:25:51;9.90;;;6.77;;
8993;SDS011;4532;50.886;4.700;2023-03-01T16:28:18;10.90;;;7.03;;
8993;SDS011;4532;50.886;4.700;2023-03-01T16:30:48;8.90;;;6.73;;
8993;SDS011;4532;50.886;4.700;2023-03-01T16:33:18;8.97;;;6.80;;
8993;SDS011;4532;50.886;4.700;2023-03-01T16:35:57;9.67;;;6.63;;
8993;SDS011;4532;50.886;4.700;2023-03-01T16:38:26;9.50;;;7.13;;
8993;SDS011;4532;50.886;4.700;2023-03-01T16:40:56;9.43;;;6.83;;
8993;SDS011;4532;50.886;4.700;2023-03-01T16:43:26;10.90;;;7.00;;
8993;SDS011;4532;50.886;4.700;2023-03-01T16:45:55;9.63;;;6.73;;
8993;SDS011;4532;50.886;4.700;2023-03-01T16:48:25;9.50;;;7.03;;
8993;SDS011;4532;50.886;4.700;2023-03-01T16:50:57;9.97;;;7.20;;
8993;SDS011;4532;50.886;4.700;2023-03-01T16:53:28;9.57;;;6.90;;
8993;SDS011;4532;50.886;4.700;2023-03-01T16:55:56;9.53;;;6.63;;
8993;SDS011;4532;50.886;4.700;2023-03-01T16:58:29;10.37;;;6.97;;
8993;SDS011;4532;50.886;4.700;2023-03-01T17:00:56;11.73;;;7.17;;
8993;SDS011;4532;50.886;4.700;2023-03-01T17:03:42;11.77;;;7.63;;
8993;SDS011;4532;50.886;4.700;2023-03-01T17:06:11;13.90;;;7.17;;
8993;SDS011;4532;50.886;4.700;2023-03-01T17:08:40;10.23;;;7.30;;
8993;SDS011;4532;50.886;4.700;2023-03-01T17:13:37;8.97;;;6.57;;
8993;SDS011;4532;50.886;4.700;2023-03-01T17:16:05;8.47;;;6.20;;
8993;SDS011;4532;50.886;4.700;2023-03-01T17:18:37;10.00;;;6.53;;
8993;SDS011;4532;50.886;4.700;2023-03-01T17:21:05;10.17;;;6.77;;
8993;SDS011;4532;50.886;4.700;2023-03-01T17:23:33;9.00;;;6.87;;
8993;SDS011;4532;50.886;4.700;2023-03-01T17:26:01;9.40;;;6.90;;
8993;SDS011;4532;50.886;4.700;2023-03-01T17:28:30;9.97;;;6.93;;
8993;SDS011;4532;50.886;4.700;2023-03-01T17:31:02;10.27;;;6.87;;
8993;SDS011;4532;50.886;4.700;2023-03-01T17:33:33;11.60;;;7.03;;
8993;SDS011;4532;50.886;4.700;2023-03-01T17:36:04;9.67;;;6.87;;
8993;SDS011;4532;50.886;4.700;2023-03-01T17:38:36;8.67;;;6.27;;
8993;SDS011;4532;50.886;4.700;2023-03-01T17:41:03;12.57;;;7.23;;
8993;SDS011;4532;50.886;4.700;2023-03-01T17:43:30;9.50;;;7.07;;
8993;SDS011;4532;50.886;4.700;2023-03-01T17:46:02;9.83;;;6.97;;
8993;SDS011;4532;50.886;4.700;2023-03-01T17:48:32;8.37;;;6.73;;
8993;SDS011;4532;50.886;4.700;2023-03-01T17:51:08;8.67;;;6.80;;
8993;SDS011;4532;50.886;4.700;2023-03-01T17:53:38;9.80;;;7.10;;
8993;SDS011;4532;50.886;4.700;2023-03-01T17:56:08;10.90;;;7.30;;
8993;SDS011;4532;50.886;4.700;2023-03-01T17:58:41;9.43;;;6.87;;